Time;durP1;ratioP1;P1;durP2;ratioP2;P2;SDS_P1;SDS_P2;PMS_P1;PMS_P2;Temp;Humidity;BMP_temperature;BMP_pressure;BME280_temperature;BME280_humidity;BME280_pressure;Samples;Min_cycle;Max_cycle;Signal;HPM_P1;HPM_P2
2023/01/26 00:02:16;;;;;;;118.13;23.98;;;0.80;99.90;;;;;;4923035;29;20193;-82
2023/01/26 00:05:18;;;;;;;108.22;25.20;;;0.70;99.90;;;;;;4924140;29;20205;-82
2023/01/26 00:07:53;;;;;;;106.97;22.75;;;0.70;99.90;;;;;;4903992;29;20538;-82
2023/01/26 00:10:56;;;;;;;108.38;25.27;;;0.70;99.90;;;;;;4926037;29;20204;-82
2023/01/26 00:13:23;;;;;;;104.57;23.38;;;0.70;99.90;;;;;;4942398;28;20182;-82
2023/01/26 00:16:10;;;;;;;113.50;24.25;;;0.70;99.90;;;;;;4983006;28;20148;-82
2023/01/26 00:18:57;;;;;;;;;;;;;;;;;;;;;
2023/01/26 00:21:55;;;;;;;105.38;25.08;;;0.70;99.90;;;;;;4983660;28;20265;-82
2023/01/26 00:24:48;;;;;;;;;;;;;;;;;;;;;
2023/01/26 00:27:23;;;;;;;105.53;23.55;;;0.60;99.90;;;;;;4983281;28;20232;-82
2023/01/26 00:30:00;;;;;;;101.70;23.55;;;0.70;99.90;;;;;;4983753;28;20522;-82
2023/01/26 00:32:34;;;;;;;111.43;22.45;;;0.70;99.90;;;;;;4965376;28;20183;-82
2023/01/26 00:35:20;;;;;;;108.63;23.35;;;0.70;99.90;;;;;;4982641;28;20542;-82
2023/01/26 00:37:59;;;;;;;109.18;22.17;;;0.60;99.90;;;;;;4982854;28;20171;-82
2023/01/26 00:40:27;;;;;;;101.20;22.90;;;0.50;99.90;;;;;;4983289;28;20191;-82
2023/01/26 00:43:04;;;;;;;108.07;19.65;;;0.50;99.90;;;;;;4982509;28;20276;-82
2023/01/26 00:46:06;;;;;;;105.35;24.50;;;0.50;99.90;;;;;;4982262;28;20221;-82
2023/01/26 00:48:34;;;;;;;106.32;20.98;;;0.50;99.90;;;;;;4973857;28;20178;-82
2023/01/26 00:51:13;;;;;;;106.93;23.67;;;0.50;99.90;;;;;;4963958;28;20562;-82
2023/01/26 00:53:41;;;;;;;104.03;21.92;;;0.60;99.90;;;;;;4981331;28;20175;-82
2023/01/26 00:56:17;;;;;;;114.55;24.52;;;0.60;99.90;;;;;;4981181;28;20531;-82
2023/01/26 00:58:50;;;;;;;98.75;23.25;;;0.70;99.90;;;;;;4981734;28;20504;-82
2023/01/26 01:01:18;;;;;;;115.40;25.10;;;0.70;99.90;;;;;;4963485;28;20194;-82
2023/01/26 01:03:51;;;;;;;113.78;25.73;;;0.70;99.90;;;;;;4981447;28;20544;-82
2023/01/26 01:06:25;;;;;;;110.07;25.48;;;0.60;99.90;;;;;;4980788;28;20251;-82
2023/01/26 01:09:19;;;;;;;113.45;24.50;;;0.60;99.90;;;;;;4980806;28;20179;-82
2023/01/26 01:11:51;;;;;;;113.38;23.75;;;0.50;99.90;;;;;;4980956;28;20682;-82
2023/01/26 01:14:29;;;;;;;117.90;26.40;;;0.50;99.90;;;;;;4980902;28;20205;-82
2023/01/26 01:17:04;;;;;;;108.25;25.38;;;0.60;99.90;;;;;;4981516;28;20183;-82
2023/01/26 01:19:53;;;;;;;104.63;25.88;;;0.70;99.90;;;;;;4980739;28;20175;-82
2023/01/26 01:23:01;;;;;;;;;;;;;;;;;;;;;
2023/01/26 01:25:30;;;;;;;111.40;24.25;;;0.70;99.90;;;;;;4971907;28;20301;-82
2023/01/26 01:28:04;;;;;;;109.20;25.17;;;0.70;99.90;;;;;;4962373;28;20183;-82
2023/01/26 01:30:41;;;;;;;114.97;25.45;;;0.70;99.90;;;;;;4962661;28;20195;-81
2023/01/26 01:33:09;;;;;;;112.55;26.38;;;0.60;99.90;;;;;;4979677;28;20182;-82
2023/01/26 01:35:41;;;;;;;111.47;25.77;;;0.60;99.90;;;;;;4979958;28;20198;-82
2023/01/26 01:38:12;;;;;;;118.82;28.83;;;0.60;99.90;;;;;;4979620;28;20156;-82
2023/01/26 01:40:52;;;;;;;106.60;24.35;;;0.60;99.90;;;;;;4979702;28;20194;-82
2023/01/26 01:43:28;;;;;;;108.05;24.83;;;0.60;99.90;;;;;;4980155;28;20155;-83
2023/01/26 01:45:54;;;;;;;104.43;24.63;;;0.70;99.90;;;;;;4980581;28;20155;-82
2023/01/26 01:48:38;;;;;;;119.28;28.10;;;0.70;99.90;;;;;;4980373;28;20164;-82
2023/01/26 01:51:37;;;;;;;117.63;25.80;;;0.50;99.90;;;;;;4980361;28;20191;-82
2023/01/26 01:54:18;;;;;;;107.72;23.75;;;0.30;99.90;;;;;;4975590;28;20189;-81
2023/01/26 01:57:14;;;;;;;108.10;23.58;;;0.20;99.90;;;;;;4979922;28;20190;-81
2023/01/26 02:00:10;;;;;;;;;;;;;;;;;;;;;
2023/01/26 02:03:14;;;;;;;118.38;26.83;;;0.20;99.90;;;;;;4979595;28;20254;-82
2023/01/26 02:06:14;;;;;;;;;;;;;;;;;;;;;
2023/01/26 02:16:33;;;;;;;108.38;24.13;;;0.60;99.90;;;;;;4868093;29;20179;-81
2023/01/26 02:20:04;;;;;;;105.93;23.63;;;0.50;99.90;;;;;;4853424;29;20189;-81
2023/01/26 02:22:57;;;;;;;;;;;;;;;;;;;;;
2023/01/26 02:29:16;;;;;;;105.45;22.83;;;0.50;99.90;;;;;;4919911;29;20245;-81
2023/01/26 02:31:45;;;;;;;108.40;23.90;;;0.30;99.90;;;;;;4922911;28;20253;-81
2023/01/26 02:34:15;;;;;;;112.97;26.15;;;0.30;99.90;;;;;;4979706;28;20234;-82
2023/01/26 02:36:44;;;;;;;111.43;26.60;;;0.10;99.90;;;;;;4978942;28;20155;-81
2023/01/26 02:40:00;;;;;;;115.28;23.70;;;0.20;99.90;;;;;;4961637;28;20725;-81
2023/01/26 02:42:39;;;;;;;115.25;27.83;;;0.10;99.90;;;;;;4981741;28;20155;-81
2023/01/26 02:45:16;;;;;;;115.28;24.48;;;0.20;99.90;;;;;;4982220;28;20210;-81
2023/01/26 02:47:44;;;;;;;109.00;26.27;;;0.20;99.90;;;;;;4981912;28;20171;-81
2023/01/26 02:50:10;;;;;;;111.97;23.42;;;0.20;99.90;;;;;;4964486;28;20175;-81
2023/01/26 02:52:56;;;;;;;113.03;25.13;;;0.20;99.90;;;;;;4981803;28;20250;-81
2023/01/26 02:55:31;;;;;;;112.88;24.90;;;0.10;99.90;;;;;;4947000;28;20218;-81
2023/01/26 02:58:02;;;;;;;104.55;22.55;;;0.00;99.90;;;;;;4982526;28;20151;-82
2023/01/26 03:00:37;;;;;;;106.90;24.95;;;0.10;99.90;;;;;;4964567;28;20607;-81
2023/01/26 03:03:13;;;;;;;108.10;22.40;;;0.20;99.90;;;;;;4982307;28;20227;-82
2023/01/26 03:05:42;;;;;;;111.65;26.23;;;0.30;99.90;;;;;;4981908;28;20191;-81
2023/01/26 03:08:14;;;;;;;108.18;25.15;;;0.30;99.90;;;;;;4982207;28;20627;-82
2023/01/26 03:10:46;;;;;;;107.75;24.75;;;0.30;99.90;;;;;;4981770;28;20214;-81
2023/01/26 03:13:17;;;;;;;112.07;25.02;;;0.30;99.90;;;;;;4981960;28;20195;-81
2023/01/26 03:15:53;;;;;;;108.32;24.48;;;0.30;99.90;;;;;;4982100;28;20147;-82
2023/01/26 03:29:30;;;;;;;108.68;25.42;;;0.30;99.90;;;;;;4982700;28;20165;-81
2023/01/26 03:31:56;;;;;;;112.30;25.90;;;0.20;99.90;;;;;;4982833;28;20202;-81
2023/01/26 03:34:28;;;;;;;111.07;25.85;;;0.30;99.90;;;;;;4982994;28;20214;-81
2023/01/26 03:36:56;;;;;;;112.93;25.67;;;0.40;99.90;;;;;;4981810;28;20190;-81
2023/01/26 03:56:38;;;;;;;111.05;24.70;;;0.60;99.90;;;;;;4981411;28;20182;-82
2023/01/26 03:59:08;;;;;;;99.10;24.10;;;0.60;99.90;;;;;;4981014;28;20175;-82
2023/01/26 04:10:00;;;;;;;104.25;23.95;;;0.50;99.90;;;;;;4981172;28;20156;-81
2023/01/26 04:12:25;;;;;;;101.53;26.70;;;0.50;99.90;;;;;;4980728;28;20164;-81
2023/01/26 04:23:03;;;;;;;115.18;26.17;;;0.40;99.90;;;;;;4980595;28;20681;-81
2023/01/26 04:25:29;;;;;;;107.17;26.07;;;0.40;99.90;;;;;;4980706;28;20270;-81
2023/01/26 04:27:54;;;;;;;98.43;23.80;;;0.40;99.90;;;;;;4963014;28;20179;-81
2023/01/26 04:30:20;;;;;;;103.90;25.20;;;0.40;99.90;;;;;;4980203;28;20191;-81
2023/01/26 04:32:46;;;;;;;97.37;24.53;;;0.50;99.90;;;;;;4980378;28;20186;-81
2023/01/26 04:35:12;;;;;;;98.27;23.80;;;0.40;99.90;;;;;;4963271;28;20202;-81
2023/01/26 04:37:38;;;;;;;103.57;24.88;;;0.40;99.90;;;;;;4979855;28;20598;-81
2023/01/26 04:40:05;;;;;;;101.03;24.40;;;0.40;99.90;;;;;;4979678;28;20250;-81
2023/01/26 04:42:31;;;;;;;99.80;23.85;;;0.40;99.90;;;;;;4979512;28;20171;-81
2023/01/26 04:44:57;;;;;;;101.97;24.13;;;0.40;99.90;;;;;;4961702;28;20206;-81
2023/01/26 04:47:23;;;;;;;95.77;22.77;;;0.50;99.90;;;;;;4980190;28;20635;-82
2023/01/26 04:49:51;;;;;;;96.77;22.23;;;0.40;99.90;;;;;;4980240;28;20489;-81
2023/01/26 04:52:17;;;;;;;103.00;23.13;;;0.50;99.90;;;;;;4962895;28;20197;-81
2023/01/26 04:54:42;;;;;;;96.50;21.53;;;0.40;99.90;;;;;;4980095;28;20167;-81
2023/01/26 04:57:08;;;;;;;90.93;21.40;;;0.40;99.90;;;;;;4980606;28;20248;-81
2023/01/26 04:59:34;;;;;;;105.40;23.80;;;0.40;99.90;;;;;;4980787;28;20653;-81
2023/01/26 05:01:59;;;;;;;98.70;22.67;;;0.30;99.90;;;;;;4979738;28;20192;-81
2023/01/26 05:04:25;;;;;;;106.73;22.30;;;0.30;99.90;;;;;;4962784;28;20202;-81
2023/01/26 05:06:51;;;;;;;93.03;22.57;;;0.40;99.90;;;;;;4980398;28;20168;-81
2023/01/26 05:09:16;;;;;;;104.67;24.30;;;0.40;99.90;;;;;;4979960;28;20535;-81
2023/01/26 05:11:42;;;;;;;104.27;22.77;;;0.40;99.90;;;;;;4979372;28;20191;-81
2023/01/26 05:14:08;;;;;;;94.30;21.43;;;0.40;99.90;;;;;;4980401;28;20623;-81
2023/01/26 05:16:33;;;;;;;100.10;22.00;;;0.40;99.90;;;;;;4979637;28;20721;-81
2023/01/26 05:18:59;;;;;;;107.30;22.43;;;0.40;99.90;;;;;;4979475;28;20175;-81
2023/01/26 05:21:28;;;;;;;100.17;22.10;;;0.40;99.90;;;;;;4979432;28;20254;-81
2023/01/26 05:23:54;;;;;;;102.78;21.00;;;0.40;99.90;;;;;;4979613;28;20289;-81
2023/01/26 05:26:20;;;;;;;98.22;21.65;;;0.40;99.90;;;;;;4994533;22;20210;-84
2023/01/26 05:28:46;;;;;;;99.43;21.13;;;0.40;99.90;;;;;;4999675;28;20151;-84
2023/01/26 05:31:11;;;;;;;93.70;20.73;;;0.40;99.90;;;;;;4999521;28;20516;-84
2023/01/26 05:33:37;;;;;;;99.00;21.87;;;0.40;99.90;;;;;;4982595;28;20429;-84
2023/01/26 05:36:05;;;;;;;110.67;21.50;;;0.40;99.90;;;;;;4982799;28;20173;-84
2023/01/26 05:38:31;;;;;;;98.35;21.90;;;0.40;99.90;;;;;;5000582;28;20158;-84
2023/01/26 05:40:58;;;;;;;98.28;21.35;;;0.40;99.90;;;;;;4982408;28;20197;-84
2023/01/26 05:43:24;;;;;;;94.82;23.33;;;0.40;99.90;;;;;;4982617;28;20194;-84
2023/01/26 05:45:50;;;;;;;94.45;20.35;;;0.40;99.90;;;;;;4982327;28;20173;-84
2023/01/26 05:48:16;;;;;;;94.63;21.00;;;0.40;99.90;;;;;;5000073;28;20249;-84
2023/01/26 05:50:42;;;;;;;97.82;21.80;;;0.40;99.90;;;;;;4981798;28;20182;-84
2023/01/26 05:53:07;;;;;;;96.27;20.63;;;0.40;99.90;;;;;;4999932;28;20198;-84
2023/01/26 05:55:33;;;;;;;97.70;21.73;;;0.40;99.90;;;;;;4999863;28;20179;-84
2023/01/26 05:57:59;;;;;;;102.17;21.17;;;0.50;99.90;;;;;;4983508;28;20178;-84
2023/01/26 06:00:25;;;;;;;100.30;22.00;;;0.50;99.90;;;;;;5000068;28;20198;-84
2023/01/26 06:02:51;;;;;;;105.57;21.48;;;0.50;99.90;;;;;;4982977;28;20295;-84
2023/01/26 06:05:19;;;;;;;95.30;22.57;;;0.50;99.90;;;;;;4999784;28;20186;-84
2023/01/26 06:07:45;;;;;;;102.82;23.42;;;0.40;99.90;;;;;;5001014;28;20486;-84
2023/01/26 06:10:13;;;;;;;99.63;22.40;;;0.50;99.90;;;;;;4982495;28;20197;-84
2023/01/26 06:12:42;;;;;;;111.43;25.15;;;0.40;99.90;;;;;;4982637;28;20171;-84
2023/01/26 06:15:08;;;;;;;103.32;22.25;;;0.40;99.90;;;;;;4982237;28;20294;-84
2023/01/26 06:17:34;;;;;;;100.22;21.58;;;0.50;99.90;;;;;;5003310;28;20162;-85
2023/01/26 06:20:00;;;;;;;95.80;22.27;;;0.40;99.90;;;;;;4986288;28;20193;-84
2023/01/26 06:22:28;;;;;;;96.40;21.73;;;0.50;99.90;;;;;;5003969;28;20163;-85
2023/01/26 06:24:54;;;;;;;96.70;21.20;;;0.50;99.90;;;;;;5003979;28;20206;-84
2023/01/26 06:27:19;;;;;;;95.87;20.87;;;0.50;99.90;;;;;;5003105;28;20186;-83
2023/01/26 06:29:45;;;;;;;96.97;19.80;;;0.60;99.90;;;;;;5003632;28;20175;-84
2023/01/26 06:32:12;;;;;;;98.93;21.90;;;0.50;99.90;;;;;;4985842;28;20222;-84
2023/01/26 06:34:38;;;;;;;98.90;23.45;;;0.60;99.90;;;;;;5003234;28;20433;-84
2023/01/26 06:37:03;;;;;;;103.23;23.37;;;0.60;99.90;;;;;;4986856;28;20170;-84
2023/01/26 06:39:29;;;;;;;94.77;19.97;;;0.50;99.90;;;;;;5003258;28;20630;-84
2023/01/26 06:41:55;;;;;;;100.17;19.33;;;0.50;99.90;;;;;;5003028;28;20191;-84
2023/01/26 06:44:21;;;;;;;98.10;19.55;;;0.50;99.90;;;;;;5002682;28;20178;-84
2023/01/26 06:46:46;;;;;;;97.77;20.10;;;0.40;99.90;;;;;;5003389;28;20162;-83
2023/01/26 06:49:12;;;;;;;97.63;22.33;;;0.40;99.90;;;;;;5003729;28;20615;-84
2023/01/26 06:51:52;;;;;;;93.87;21.47;;;0.50;99.90;;;;;;5002983;28;20187;-84
2023/01/26 06:54:17;;;;;;;99.32;20.33;;;0.50;99.90;;;;;;5003797;28;20911;-84
2023/01/26 06:56:44;;;;;;;99.33;19.63;;;0.50;99.90;;;;;;4985864;28;20174;-84
2023/01/26 06:59:10;;;;;;;96.78;21.00;;;0.60;99.90;;;;;;4985589;28;20170;-84
2023/01/26 07:01:42;;;;;;;101.82;21.50;;;0.50;99.90;;;;;;4985259;28;20193;-84
2023/01/26 07:04:07;;;;;;;104.65;20.90;;;0.40;99.90;;;;;;5002952;28;20187;-84
2023/01/26 07:06:33;;;;;;;99.40;19.57;;;0.40;99.90;;;;;;4984932;28;20213;-83
2023/01/26 07:08:59;;;;;;;100.10;22.07;;;0.50;99.90;;;;;;4985889;28;20174;-84
2023/01/26 07:11:24;;;;;;;100.63;22.03;;;0.50;99.90;;;;;;4985128;28;20437;-84
2023/01/26 07:13:50;;;;;;;100.73;21.13;;;0.50;99.90;;;;;;5003211;28;20162;-84
2023/01/26 07:16:17;;;;;;;102.07;19.38;;;0.60;99.90;;;;;;5003352;28;20170;-84
2023/01/26 07:18:46;;;;;;;102.55;21.95;;;0.60;99.90;;;;;;5002574;28;20214;-84
2023/01/26 07:21:15;;;;;;;104.00;20.67;;;0.50;99.90;;;;;;5002095;28;20205;-84
2023/01/26 07:23:41;;;;;;;96.40;19.17;;;0.60;99.90;;;;;;4984735;28;20198;-83
2023/01/26 07:26:07;;;;;;;100.25;22.10;;;0.60;99.90;;;;;;5002260;28;20646;-84
2023/01/26 07:28:33;;;;;;;101.03;21.75;;;0.50;99.90;;;;;;4984364;28;20240;-84
2023/01/26 07:31:03;;;;;;;105.87;20.57;;;0.50;99.90;;;;;;5002207;28;20214;-84
2023/01/26 07:33:29;;;;;;;95.88;20.10;;;0.60;99.90;;;;;;5001757;28;20398;-83
2023/01/26 07:35:56;;;;;;;94.30;21.35;;;0.50;99.90;;;;;;4968978;28;20170;-83
2023/01/26 07:38:22;;;;;;;105.22;23.52;;;0.50;99.90;;;;;;5001830;28;20526;-84
2023/01/26 07:40:49;;;;;;;98.97;22.60;;;0.50;99.90;;;;;;4984163;28;20222;-84
2023/01/26 07:43:15;;;;;;;101.80;19.88;;;0.60;99.90;;;;;;5001990;28;20158;-84
2023/01/26 07:45:50;;;;;;;101.65;21.00;;;0.50;99.90;;;;;;5002116;28;20189;-83
2023/01/26 07:48:17;;;;;;;98.63;19.85;;;0.50;99.90;;;;;;5001555;28;20165;-84
2023/01/26 07:50:44;;;;;;;98.43;21.25;;;0.40;99.90;;;;;;4984503;28;20191;-84
2023/01/26 07:53:11;;;;;;;96.15;20.35;;;0.40;99.90;;;;;;4984170;28;20657;-84
2023/01/26 07:55:42;;;;;;;94.07;20.10;;;0.40;99.90;;;;;;4985005;28;20258;-84
2023/01/26 07:58:09;;;;;;;96.05;18.80;;;0.50;99.90;;;;;;5001864;28;20217;-84
2023/01/26 08:00:35;;;;;;;99.28;22.00;;;0.50;99.90;;;;;;5002154;28;20678;-84
2023/01/26 08:03:00;;;;;;;95.18;20.52;;;0.50;99.90;;;;;;4984450;28;20178;-84
2023/01/26 08:05:26;;;;;;;96.60;21.30;;;0.70;99.90;;;;;;5001389;28;20551;-84
2023/01/26 08:07:55;;;;;;;98.60;20.50;;;0.80;99.90;;;;;;5001143;28;20253;-84
2023/01/26 08:10:21;;;;;;;99.65;21.30;;;0.80;99.90;;;;;;5001512;28;20189;-84
2023/01/26 08:12:50;;;;;;;91.97;17.77;;;0.70;99.90;;;;;;5001463;28;20163;-84
2023/01/26 08:15:16;;;;;;;92.20;18.67;;;0.70;99.90;;;;;;4983993;28;20171;-84
2023/01/26 08:17:41;;;;;;;98.97;20.83;;;0.60;99.90;;;;;;4984193;28;20171;-83
2023/01/26 08:20:08;;;;;;;92.90;18.87;;;0.70;99.90;;;;;;5001297;28;20634;-84
2023/01/26 08:22:33;;;;;;;100.43;20.67;;;0.70;99.90;;;;;;5001043;28;20197;-84
2023/01/26 08:24:59;;;;;;;101.17;22.23;;;0.80;99.90;;;;;;4982842;28;20198;-84
2023/01/26 08:27:25;;;;;;;105.88;20.00;;;0.90;99.90;;;;;;5000742;28;20194;-84
2023/01/26 08:29:51;;;;;;;100.10;20.87;;;0.90;99.90;;;;;;4983887;28;20492;-84
2023/01/26 08:32:16;;;;;;;92.70;19.17;;;0.80;99.90;;;;;;4982839;28;20186;-84
2023/01/26 08:34:42;;;;;;;98.80;19.10;;;0.90;99.90;;;;;;5000640;28;20162;-84
2023/01/26 08:37:08;;;;;;;102.33;22.13;;;0.90;99.90;;;;;;4983180;28;20178;-83
2023/01/26 08:39:33;;;;;;;95.23;20.30;;;1.00;99.90;;;;;;4981947;28;20270;-84
2023/01/26 08:41:59;;;;;;;96.33;20.80;;;1.00;99.90;;;;;;5000327;28;20190;-84
2023/01/26 08:44:33;;;;;;;100.57;19.77;;;1.10;99.90;;;;;;4983211;28;20262;-84
2023/01/26 08:46:59;;;;;;;94.95;21.92;;;1.10;99.90;;;;;;4982818;28;20174;-84
2023/01/26 08:49:24;;;;;;;98.57;18.80;;;1.00;99.90;;;;;;5001171;28;20630;-84
2023/01/26 08:51:50;;;;;;;92.20;19.07;;;1.10;99.90;;;;;;5000148;28;20221;-84
2023/01/26 08:54:16;;;;;;;100.07;17.93;;;1.10;99.90;;;;;;4999868;28;20189;-84
2023/01/26 08:56:41;;;;;;;100.17;20.60;;;1.10;99.90;;;;;;4999973;28;20178;-84
2023/01/26 08:59:07;;;;;;;85.27;17.90;;;1.00;99.90;;;;;;5000233;28;20171;-84
2023/01/26 09:01:33;;;;;;;97.27;21.20;;;1.00;99.90;;;;;;4982652;28;20690;-84
2023/01/26 09:03:59;;;;;;;94.37;20.00;;;1.10;99.90;;;;;;4999536;28;20624;-84
2023/01/26 09:09:15;;;;;;;98.88;19.20;;;1.10;99.90;;;;;;5067216;22;20638;-84
2023/01/26 09:11:41;;;;;;;93.17;19.97;;;1.10;99.90;;;;;;4999362;28;20187;-84
2023/01/26 09:14:06;;;;;;;91.93;22.00;;;1.20;99.90;;;;;;5000008;28;20175;-84
2023/01/26 09:16:32;;;;;;;99.93;20.57;;;1.20;99.90;;;;;;4982690;28;20285;-84
2023/01/26 09:18:58;;;;;;;93.27;20.13;;;1.10;99.90;;;;;;4999532;28;20406;-84
2023/01/26 09:21:24;;;;;;;98.40;22.77;;;1.20;99.90;;;;;;4982452;28;20186;-84
2023/01/26 09:23:50;;;;;;;112.93;26.50;;;1.20;99.90;;;;;;4999597;28;20433;-84
2023/01/26 09:26:16;;;;;;;104.23;22.67;;;1.20;99.90;;;;;;4981790;28;20453;-84
2023/01/26 09:28:41;;;;;;;115.20;24.77;;;1.10;99.90;;;;;;4999859;28;20194;-84
2023/01/26 09:31:12;;;;;;;97.87;19.97;;;1.10;99.90;;;;;;4999006;28;20421;-84
2023/01/26 09:33:38;;;;;;;95.05;19.75;;;1.20;99.90;;;;;;5000108;28;20599;-84
2023/01/26 09:36:09;;;;;;;107.07;23.27;;;1.30;99.90;;;;;;4999328;28;20198;-84
2023/01/26 09:38:39;;;;;;;115.70;27.25;;;1.30;99.90;;;;;;4981667;28;20414;-84
2023/01/26 09:41:26;;;;;;;133.05;36.55;;;1.40;99.90;;;;;;4981182;28;20186;-84
2023/01/26 09:44:13;;;;;;;123.72;33.15;;;1.40;99.90;;;;;;4981587;28;20302;-84
2023/01/26 09:46:38;;;;;;;110.57;26.10;;;1.40;99.90;;;;;;4999903;28;20158;-83
2023/01/26 09:49:25;;;;;;;104.20;21.53;;;1.40;99.90;;;;;;4981507;28;20166;-83
2023/01/26 09:52:22;;;;;;;100.13;20.25;;;1.40;99.90;;;;;;4998320;28;20186;-83
2023/01/26 09:54:54;;;;;;;99.85;19.50;;;1.40;99.90;;;;;;4998924;28;20229;-84
2023/01/26 09:57:46;;;;;;;106.15;26.27;;;1.40;99.90;;;;;;4998570;28;20228;-84
2023/01/26 10:00:18;;;;;;;104.35;21.77;;;1.50;99.90;;;;;;4999063;28;20219;-83
2023/01/26 10:03:02;;;;;;;103.63;21.67;;;1.50;99.90;;;;;;4981721;28;20167;-84
2023/01/26 10:05:52;;;;;;;106.78;21.70;;;1.50;99.90;;;;;;4998571;28;20183;-84
2023/01/26 10:08:22;;;;;;;115.03;22.05;;;1.60;99.90;;;;;;4980975;28;20189;-84
2023/01/26 10:10:54;;;;;;;110.88;23.35;;;1.60;99.90;;;;;;4981184;28;20194;-83
2023/01/26 10:13:22;;;;;;;118.43;23.15;;;1.60;99.90;;;;;;4981389;28;20166;-83
2023/01/26 10:16:05;;;;;;;114.22;24.55;;;1.60;99.90;;;;;;4998233;28;20190;-84
2023/01/26 10:18:47;;;;;;;110.13;22.60;;;1.60;99.90;;;;;;4998834;28;20158;-84
2023/01/26 10:21:15;;;;;;;111.60;25.45;;;1.60;99.90;;;;;;4997942;28;20194;-84
2023/01/26 10:23:47;;;;;;;107.03;26.08;;;1.60;99.90;;;;;;4998426;28;20584;-84
2023/01/26 10:26:18;;;;;;;103.68;23.05;;;1.60;99.90;;;;;;4998468;28;20221;-84
2023/01/26 10:28:47;;;;;;;117.30;27.02;;;1.60;99.90;;;;;;4998144;28;20151;-84
2023/01/26 10:31:26;;;;;;;109.50;21.42;;;1.60;99.90;;;;;;4997740;28;20183;-83
2023/01/26 10:33:55;;;;;;;110.07;23.13;;;1.60;99.90;;;;;;4998335;28;20249;-83
2023/01/26 10:36:21;;;;;;;113.38;24.45;;;1.60;99.90;;;;;;4998127;28;20190;-84
2023/01/26 10:38:49;;;;;;;124.28;24.95;;;1.70;99.90;;;;;;4980617;28;20174;-84
2023/01/26 10:41:17;;;;;;;115.28;24.63;;;1.60;99.90;;;;;;4997912;28;20729;-83
2023/01/26 10:43:53;;;;;;;123.15;22.63;;;1.60;99.90;;;;;;4997431;28;20179;-83
2023/01/26 10:46:27;;;;;;;110.75;24.15;;;1.60;99.90;;;;;;4980028;28;20261;-84
2023/01/26 10:48:56;;;;;;;115.38;22.60;;;1.60;99.90;;;;;;4998078;28;20214;-83
2023/01/26 10:51:30;;;;;;;120.40;26.25;;;1.60;99.90;;;;;;4980291;28;20191;-83
2023/01/26 10:54:17;;;;;;;120.80;25.02;;;1.60;99.90;;;;;;4997437;28;20155;-83
2023/01/26 10:56:58;;;;;;;118.20;22.67;;;1.60;99.90;;;;;;4979924;28;20270;-84
2023/01/26 10:59:47;;;;;;;115.97;24.17;;;1.60;99.90;;;;;;4979784;28;20193;-83
2023/01/26 11:02:13;;;;;;;110.18;23.50;;;1.70;99.90;;;;;;4998333;28;20193;-84
2023/01/26 11:04:41;;;;;;;114.10;24.57;;;1.80;99.90;;;;;;4982779;28;20195;-84
2023/01/26 11:07:30;;;;;;;118.45;25.02;;;1.80;99.90;;;;;;5000870;28;20162;-84
2023/01/26 11:10:24;;;;;;;108.30;23.17;;;1.80;99.90;;;;;;5000648;28;20256;-84
2023/01/26 11:12:51;;;;;;;115.05;22.10;;;1.80;99.90;;;;;;5001180;28;20209;-84
2023/01/26 11:15:23;;;;;;;119.38;23.10;;;1.90;99.90;;;;;;4983711;28;20177;-84
2023/01/26 11:18:12;;;;;;;117.35;21.52;;;1.90;99.90;;;;;;5000469;28;20669;-84
2023/01/26 11:20:50;;;;;;;117.43;29.75;;;1.90;99.90;;;;;;4983729;28;20578;-83
2023/01/26 11:23:28;;;;;;;110.65;27.58;;;1.90;99.90;;;;;;5001040;28;20151;-84
2023/01/26 11:26:07;;;;;;;111.25;24.90;;;1.80;99.90;;;;;;4982608;28;20182;-84
2023/01/26 11:28:44;;;;;;;114.05;27.73;;;1.80;99.90;;;;;;5067612;22;20218;-81
2023/01/26 11:31:31;;;;;;;119.78;25.02;;;1.70;99.90;;;;;;4983624;28;20617;-80
2023/01/26 11:34:24;;;;;;;114.28;25.65;;;1.80;99.90;;;;;;5001419;28;20193;-80
2023/01/26 11:37:08;;;;;;;116.45;25.58;;;1.80;99.90;;;;;;5001001;28;20162;-80
2023/01/26 11:39:41;;;;;;;120.78;24.60;;;1.80;99.90;;;;;;5001383;28;20217;-80
2023/01/26 11:42:22;;;;;;;116.53;23.52;;;1.80;99.90;;;;;;5000853;28;20607;-80
2023/01/26 11:45:20;;;;;;;117.40;25.05;;;1.90;99.90;;;;;;5000206;28;20212;-80
2023/01/26 11:48:06;;;;;;;122.05;28.20;;;1.90;99.90;;;;;;4996101;28;20183;-80
2023/01/26 11:50:44;;;;;;;115.40;23.98;;;1.90;99.90;;;;;;4983076;28;20178;-80
2023/01/26 11:53:36;;;;;;;117.40;25.00;;;1.90;99.90;;;;;;5001018;28;20151;-80
2023/01/26 11:56:26;;;;;;;116.75;25.25;;;1.90;99.90;;;;;;5001175;28;20143;-80
2023/01/26 11:59:00;;;;;;;112.57;24.48;;;2.00;99.90;;;;;;5001040;28;20222;-80
2023/01/26 12:01:40;;;;;;;112.50;21.83;;;2.00;99.90;;;;;;5001376;28;20210;-80
2023/01/26 12:04:16;;;;;;;113.30;24.23;;;2.00;99.90;;;;;;5000990;28;20185;-80
2023/01/26 12:06:46;;;;;;;121.35;28.15;;;1.80;99.90;;;;;;5000639;28;20205;-80
2023/01/26 12:09:31;;;;;;;115.90;26.13;;;1.80;99.90;;;;;;5000499;28;20166;-80
2023/01/26 12:12:05;;;;;;;109.32;25.05;;;1.80;99.90;;;;;;4999936;28;20229;-81
2023/01/26 12:14:45;;;;;;;100.00;23.38;;;1.80;99.90;;;;;;4999119;28;20169;-81
2023/01/26 12:17:53;;;;;;;111.28;24.83;;;1.70;99.90;;;;;;5001134;28;20249;-80
2023/01/26 12:20:44;;;;;;;111.00;25.27;;;1.70;99.90;;;;;;4980567;28;20202;-80
2023/01/26 12:23:10;;;;;;;110.45;25.42;;;1.60;99.90;;;;;;5000658;28;20151;-81
2023/01/26 12:25:55;;;;;;;117.23;28.30;;;1.60;99.90;;;;;;5000638;28;20224;-81
2023/01/26 12:28:36;;;;;;;172.57;50.55;;;1.50;99.90;;;;;;4982887;28;20209;-81
2023/01/26 12:31:22;;;;;;;123.30;33.00;;;1.50;99.90;;;;;;5000335;28;20198;-81
2023/01/26 12:33:50;;;;;;;128.52;32.90;;;1.60;99.90;;;;;;5000354;28;20194;-80
2023/01/26 12:36:25;;;;;;;126.55;28.65;;;1.50;99.90;;;;;;5000503;28;20529;-81
2023/01/26 12:38:54;;;;;;;129.45;33.53;;;1.50;99.90;;;;;;4982450;28;20719;-81
2023/01/26 12:41:20;;;;;;;117.05;32.35;;;1.60;99.90;;;;;;5000293;28;20724;-81
2023/01/26 12:43:56;;;;;;;113.97;28.30;;;1.70;99.90;;;;;;5000223;28;20159;-80
2023/01/26 12:46:25;;;;;;;125.43;30.48;;;1.70;99.90;;;;;;4999713;28;20151;-80
2023/01/26 12:49:14;;;;;;;111.10;27.23;;;1.70;99.90;;;;;;4999733;28;20194;-80
2023/01/26 12:51:47;;;;;;;111.80;28.25;;;1.60;99.90;;;;;;4999733;28;20192;-80
2023/01/26 12:54:40;;;;;;;112.30;30.80;;;1.60;99.90;;;;;;4999904;28;20163;-80
2023/01/26 12:57:13;;;;;;;114.13;27.90;;;1.70;99.90;;;;;;5000286;28;20162;-80
2023/01/26 12:59:40;;;;;;;107.68;26.30;;;1.70;99.90;;;;;;4982601;28;20170;-80
2023/01/26 13:02:27;;;;;;;105.22;25.67;;;1.80;99.90;;;;;;4999375;28;20282;-81
2023/01/26 13:04:53;;;;;;;110.22;29.20;;;1.80;99.90;;;;;;4981893;28;20197;-80
2023/01/26 13:07:38;;;;;;;104.40;23.70;;;1.70;99.90;;;;;;4999559;28;20159;-80
2023/01/26 13:10:21;;;;;;;106.82;26.95;;;1.80;99.90;;;;;;4999397;28;20147;-80
2023/01/26 13:12:55;;;;;;;99.28;23.73;;;1.70;99.90;;;;;;5000232;28;20161;-81
2023/01/26 13:15:31;;;;;;;111.05;24.90;;;1.80;99.90;;;;;;4999849;28;20155;-81
2023/01/26 13:18:03;;;;;;;101.88;24.23;;;1.80;99.90;;;;;;4999829;28;20163;-81
2023/01/26 13:20:48;;;;;;;101.47;25.17;;;1.80;99.90;;;;;;4999426;28;20191;-81
2023/01/26 13:23:37;;;;;;;101.30;23.88;;;1.80;99.90;;;;;;4999843;28;20177;-80
2023/01/26 13:26:18;;;;;;;95.00;21.45;;;1.80;99.90;;;;;;4999103;28;20667;-80
2023/01/26 13:28:45;;;;;;;100.63;21.50;;;1.80;99.90;;;;;;4999334;28;20188;-80
2023/01/26 13:31:11;;;;;;;97.60;23.20;;;1.70;99.90;;;;;;4980951;28;20201;-80
2023/01/26 13:33:37;;;;;;;94.55;21.67;;;1.70;99.90;;;;;;4999093;28;20641;-80
2023/01/26 13:36:12;;;;;;;95.95;21.13;;;1.70;99.90;;;;;;4999029;28;20642;-80
2023/01/26 13:38:43;;;;;;;97.72;20.42;;;1.80;99.90;;;;;;4998955;28;20522;-80
2023/01/26 13:41:18;;;;;;;99.35;20.58;;;1.80;99.90;;;;;;4999175;28;20182;-80
2023/01/26 13:43:47;;;;;;;92.38;19.27;;;1.70;99.90;;;;;;4998982;28;20150;-80
2023/01/26 13:46:39;;;;;;;96.93;20.05;;;1.80;99.90;;;;;;4999426;28;20159;-81
2023/01/26 13:49:21;;;;;;;87.75;19.20;;;1.80;99.90;;;;;;4999242;28;20491;-81
2023/01/26 13:51:47;;;;;;;89.22;21.13;;;1.80;99.90;;;;;;4998950;28;20301;-80
2023/01/26 13:54:14;;;;;;;88.00;21.07;;;1.80;99.90;;;;;;4999518;28;20190;-80
2023/01/26 13:57:02;;;;;;;90.70;18.75;;;1.70;99.90;;;;;;4980768;28;20166;-80
2023/01/26 13:59:28;;;;;;;89.43;18.73;;;1.70;99.90;;;;;;4981379;28;20186;-81
2023/01/26 14:01:56;;;;;;;89.43;19.07;;;1.80;99.90;;;;;;4998868;28;20197;-81
2023/01/26 14:04:30;;;;;;;87.55;20.52;;;1.70;99.90;;;;;;4981457;28;20700;-80
2023/01/26 14:07:08;;;;;;;90.15;19.30;;;1.80;99.90;;;;;;4980636;28;20186;-80
2023/01/26 14:09:45;;;;;;;95.70;20.42;;;1.80;99.90;;;;;;4981838;28;20166;-80